sensor_id;sensor_type;location;lat;lon;timestamp;pressure;altitude;pressure_sealevel;temperature;humidity
63399;BME280;49533;-34.520;150.798;2023-08-12T00:00:32;100762.19;;;17.63;41.27
63399;BME280;49533;-34.520;150.798;2023-08-12T00:02:59;100787.56;;;17.85;41.09
63399;BME280;49533;-34.520;150.798;2023-08-12T00:05:26;100810.50;;;18.04;40.97
63399;BME280;49533;-34.520;150.798;2023-08-12T00:07:53;100811.16;;;18.14;40.91
63399;BME280;49533;-34.520;150.798;2023-08-12T00:10:20;100715.84;;;17.62;40.96
63399;BME280;49533;-34.520;150.798;2023-08-12T00:12:47;100794.59;;;18.26;41.00
63399;BME280;49533;-34.520;150.798;2023-08-12T00:15:14;100788.97;;;18.22;40.95
63399;BME280;49533;-34.520;150.798;2023-08-12T00:17:41;100792.44;;;18.35;40.73
63399;BME280;49533;-34.520;150.798;2023-08-12T00:20:09;100785.03;;;18.36;40.80
63399;BME280;49533;-34.520;150.798;2023-08-12T00:22:37;100775.59;;;18.37;40.64
63399;BME280;49533;-34.520;150.798;2023-08-12T00:25:05;100783.41;;;18.51;40.58
63399;BME280;49533;-34.520;150.798;2023-08-12T00:27:33;100783.53;;;18.54;40.37
63399;BME280;49533;-34.520;150.798;2023-08-12T00:30:00;100776.13;;;18.58;40.23
63399;BME280;49533;-34.520;150.798;2023-08-12T00:32:27;100743.50;;;18.41;40.23
63399;BME280;49533;-34.520;150.798;2023-08-12T00:34:54;100768.50;;;18.67;40.10
63399;BME280;49533;-34.520;150.798;2023-08-12T00:37:21;100761.50;;;18.70;39.94
63399;BME280;49533;-34.520;150.798;2023-08-12T00:39:48;100736.38;;;18.56;39.96
63399;BME280;49533;-34.520;150.798;2023-08-12T00:42:15;100760.44;;;18.75;39.92
63399;BME280;49533;-34.520;150.798;2023-08-12T00:44:42;100759.81;;;18.81;39.90
63399;BME280;49533;-34.520;150.798;2023-08-12T00:47:09;100755.22;;;18.85;39.90
63399;BME280;49533;-34.520;150.798;2023-08-12T00:49:37;100747.28;;;18.84;39.92
63399;BME280;49533;-34.520;150.798;2023-08-12T00:52:06;100758.56;;;18.95;39.80
63399;BME280;49533;-34.520;150.798;2023-08-12T00:54:33;100727.06;;;18.92;39.81
63399;BME280;49533;-34.520;150.798;2023-08-12T00:57:01;100742.19;;;19.02;39.47
63399;BME280;49533;-34.520;150.798;2023-08-12T00:59:28;100747.81;;;19.05;39.38
63399;BME280;49533;-34.520;150.798;2023-08-12T01:01:56;100730.50;;;18.89;39.42
63399;BME280;49533;-34.520;150.798;2023-08-12T01:04:23;100753.47;;;19.13;39.36
63399;BME280;49533;-34.520;150.798;2023-08-12T01:06:50;100741.63;;;19.12;38.92
63399;BME280;49533;-34.520;150.798;2023-08-12T01:09:17;100743.75;;;19.19;38.59
63399;BME280;49533;-34.520;150.798;2023-08-12T01:14:39;100742.31;;;19.25;38.50
63399;BME280;49533;-34.520;150.798;2023-08-12T01:17:12;100718.09;;;19.15;38.57
63399;BME280;49533;-34.520;150.798;2023-08-12T01:19:43;100729.44;;;19.29;38.81
63399;BME280;49533;-34.520;150.798;2023-08-12T01:22:12;100708.69;;;19.16;38.70
63399;BME280;49533;-34.520;150.798;2023-08-12T01:24:40;100726.38;;;19.34;38.21
63399;BME280;49533;-34.520;150.798;2023-08-12T01:27:10;100733.47;;;19.35;37.63
63399;BME280;49533;-34.520;150.798;2023-08-12T01:29:45;100715.44;;;19.38;37.23
63399;BME280;49533;-34.520;150.798;2023-08-12T01:35:20;100716.25;;;19.38;35.35
63399;BME280;49533;-34.520;150.798;2023-08-12T01:37:50;100709.91;;;19.38;35.63
63399;BME280;49533;-34.520;150.798;2023-08-12T01:40:19;100695.47;;;19.25;35.86
63399;BME280;49533;-34.520;150.798;2023-08-12T01:42:46;100698.03;;;19.33;35.67
63399;BME280;49533;-34.520;150.798;2023-08-12T01:45:14;100688.97;;;19.33;35.65
63399;BME280;49533;-34.520;150.798;2023-08-12T01:47:44;100697.47;;;19.44;35.59
63399;BME280;49533;-34.520;150.798;2023-08-12T01:50:12;100629.84;;;19.07;35.68
63399;BME280;49533;-34.520;150.798;2023-08-12T01:52:39;100688.91;;;19.49;35.89
63399;BME280;49533;-34.520;150.798;2023-08-12T01:55:06;100676.34;;;19.51;36.11
63399;BME280;49533;-34.520;150.798;2023-08-12T01:57:33;100663.81;;;19.54;36.14
63399;BME280;49533;-34.520;150.798;2023-08-12T02:00:01;100611.25;;;19.24;35.72
63399;BME280;49533;-34.520;150.798;2023-08-12T02:02:28;100661.53;;;19.60;35.59
63399;BME280;49533;-34.520;150.798;2023-08-12T02:04:55;100651.75;;;19.62;35.88
63399;BME280;49533;-34.520;150.798;2023-08-12T02:07:22;100610.13;;;19.48;35.50
63399;BME280;49533;-34.520;150.798;2023-08-12T02:09:49;100609.47;;;19.54;35.75
63399;BME280;49533;-34.520;150.798;2023-08-12T02:12:17;100631.84;;;19.69;35.75
63399;BME280;49533;-34.520;150.798;2023-08-12T02:14:44;100588.47;;;19.46;35.62
63399;BME280;49533;-34.520;150.798;2023-08-12T02:17:11;100609.34;;;19.67;36.15
63399;BME280;49533;-34.520;150.798;2023-08-12T02:19:38;100625.63;;;19.75;35.92
63399;BME280;49533;-34.520;150.798;2023-08-12T02:22:05;100561.97;;;19.38;35.87
63399;BME280;49533;-34.520;150.798;2023-08-12T02:24:32;100610.00;;;19.83;35.69
63399;BME280;49533;-34.520;150.798;2023-08-12T02:26:59;100577.50;;;19.69;34.94
63399;BME280;49533;-34.520;150.798;2023-08-12T02:29:26;100561.59;;;19.63;35.27
63399;BME280;49533;-34.520;150.798;2023-08-12T02:31:53;100570.88;;;19.74;34.83
63399;BME280;49533;-34.520;150.798;2023-08-12T02:34:20;100592.06;;;19.93;34.24
63399;BME280;49533;-34.520;150.798;2023-08-12T02:36:47;100591.72;;;19.94;34.33
63399;BME280;49533;-34.520;150.798;2023-08-12T02:39:14;100569.25;;;19.96;34.34
63399;BME280;49533;-34.520;150.798;2023-08-12T02:41:42;100551.63;;;19.77;34.36
63399;BME280;49533;-34.520;150.798;2023-08-12T02:44:09;100565.41;;;20.01;34.52
63399;BME280;49533;-34.520;150.798;2023-08-12T02:46:36;100530.06;;;19.83;34.33
63399;BME280;49533;-34.520;150.798;2023-08-12T02:49:03;100529.28;;;19.83;33.99
63399;BME280;49533;-34.520;150.798;2023-08-12T02:51:30;100526.66;;;19.93;34.03
63399;BME280;49533;-34.520;150.798;2023-08-12T02:53:57;100552.50;;;20.08;33.30
63399;BME280;49533;-34.520;150.798;2023-08-12T02:56:24;100565.56;;;20.11;33.43
63399;BME280;49533;-34.520;150.798;2023-08-12T02:58:51;100549.44;;;20.13;32.94
63399;BME280;49533;-34.520;150.798;2023-08-12T03:01:20;100546.63;;;20.10;32.12
63399;BME280;49533;-34.520;150.798;2023-08-12T03:03:47;100549.78;;;20.12;31.59
63399;BME280;49533;-34.520;150.798;2023-08-12T03:06:14;100498.91;;;19.79;31.40
63399;BME280;49533;-34.520;150.798;2023-08-12T03:08:41;100531.88;;;19.98;31.15
63399;BME280;49533;-34.520;150.798;2023-08-12T03:11:08;100545.03;;;20.09;31.22
63399;BME280;49533;-34.520;150.798;2023-08-12T03:13:35;100543.44;;;20.08;31.57
63399;BME280;49533;-34.520;150.798;2023-08-12T03:16:02;100545.81;;;20.09;31.81
63399;BME280;49533;-34.520;150.798;2023-08-12T03:18:29;100541.47;;;20.08;31.93
63399;BME280;49533;-34.520;150.798;2023-08-12T03:20:56;100545.00;;;20.05;31.79
63399;BME280;49533;-34.520;150.798;2023-08-12T03:23:23;100523.47;;;19.91;31.81
63399;BME280;49533;-34.520;150.798;2023-08-12T03:25:51;100546.56;;;20.06;32.12
63399;BME280;49533;-34.520;150.798;2023-08-12T03:28:18;100555.22;;;20.05;31.99
63399;BME280;49533;-34.520;150.798;2023-08-12T03:30:54;100548.09;;;20.04;31.65
63399;BME280;49533;-34.520;150.798;2023-08-12T03:33:21;100552.41;;;20.01;31.75
63399;BME280;49533;-34.520;150.798;2023-08-12T03:35:48;100523.91;;;19.93;31.93
63399;BME280;49533;-34.520;150.798;2023-08-12T03:38:16;100548.97;;;20.08;32.54
63399;BME280;49533;-34.520;150.798;2023-08-12T03:40:43;100529.06;;;19.95;32.80
63399;BME280;49533;-34.520;150.798;2023-08-12T03:43:10;100521.63;;;19.99;33.18
63399;BME280;49533;-34.520;150.798;2023-08-12T03:45:44;100546.78;;;20.20;33.11
63399;BME280;49533;-34.520;150.798;2023-08-12T03:48:11;100539.34;;;20.25;33.24
63399;BME280;49533;-34.520;150.798;2023-08-12T03:50:39;100507.94;;;20.06;33.51
63399;BME280;49533;-34.520;150.798;2023-08-12T03:53:06;100538.31;;;20.33;33.62
63399;BME280;49533;-34.520;150.798;2023-08-12T03:55:35;100495.38;;;20.09;33.65
63399;BME280;49533;-34.520;150.798;2023-08-12T03:58:02;100531.69;;;20.41;33.78
63399;BME280;49533;-34.520;150.798;2023-08-12T04:00:29;100534.91;;;20.43;33.77
63399;BME280;49533;-34.520;150.798;2023-08-12T04:02:57;100479.72;;;20.16;33.72
63399;BME280;49533;-34.520;150.798;2023-08-12T04:05:24;100533.75;;;20.48;33.85
63399;BME280;49533;-34.520;150.798;2023-08-12T04:07:51;100508.34;;;20.35;33.85
63399;BME280;49533;-34.520;150.798;2023-08-12T04:10:18;100530.25;;;20.51;33.77
63399;BME280;49533;-34.520;150.798;2023-08-12T04:12:45;100527.06;;;20.49;33.98
63399;BME280;49533;-34.520;150.798;2023-08-12T04:15:12;100502.75;;;20.28;33.71
63399;BME280;49533;-34.520;150.798;2023-08-12T04:17:39;100519.94;;;20.48;33.76
63399;BME280;49533;-34.520;150.798;2023-08-12T04:20:07;100501.25;;;20.34;34.08
63399;BME280;49533;-34.520;150.798;2023-08-12T04:22:35;100483.81;;;20.26;33.79
63399;BME280;49533;-34.520;150.798;2023-08-12T04:25:02;100463.81;;;20.06;33.69
63399;BME280;49533;-34.520;150.798;2023-08-12T04:27:29;100515.28;;;20.52;34.14
63399;BME280;49533;-34.520;150.798;2023-08-12T04:29:57;100301.72;;;19.05;34.07
63399;BME280;49533;-34.520;150.798;2023-08-12T04:32:24;100524.16;;;20.65;34.00
63399;BME280;49533;-34.520;150.798;2023-08-12T04:34:51;100510.34;;;20.65;33.76
63399;BME280;49533;-34.520;150.798;2023-08-12T04:37:18;100490.06;;;20.53;34.06
63399;BME280;49533;-34.520;150.798;2023-08-12T04:39:45;100530.88;;;20.67;34.01
63399;BME280;49533;-34.520;150.798;2023-08-12T04:42:12;100515.91;;;20.68;34.14
63399;BME280;49533;-34.520;150.798;2023-08-12T04:44:39;100512.69;;;20.62;34.09
63399;BME280;49533;-34.520;150.798;2023-08-12T04:47:06;100528.16;;;20.71;34.22
63399;BME280;49533;-34.520;150.798;2023-08-12T04:49:33;100519.50;;;20.72;34.32
63399;BME280;49533;-34.520;150.798;2023-08-12T04:52:00;100478.53;;;20.44;34.34
63399;BME280;49533;-34.520;150.798;2023-08-12T04:54:27;100446.75;;;20.27;34.41
63399;BME280;49533;-34.520;150.798;2023-08-12T04:56:54;100497.63;;;20.56;33.65
63399;BME280;49533;-34.520;150.798;2023-08-12T04:59:22;100478.53;;;20.44;33.93
63399;BME280;49533;-34.520;150.798;2023-08-12T05:01:49;100520.25;;;20.69;33.72
63399;BME280;49533;-34.520;150.798;2023-08-12T05:04:16;100540.38;;;20.70;33.68
63399;BME280;49533;-34.520;150.798;2023-08-12T05:06:43;100526.91;;;20.65;33.94
63399;BME280;49533;-34.520;150.798;2023-08-12T05:09:10;100526.16;;;20.68;33.91
63399;BME280;49533;-34.520;150.798;2023-08-12T05:11:37;100532.84;;;20.67;33.53
63399;BME280;49533;-34.520;150.798;2023-08-12T05:14:04;100530.78;;;20.60;33.59
63399;BME280;49533;-34.520;150.798;2023-08-12T05:16:32;100434.59;;;20.02;33.35
63399;BME280;49533;-34.520;150.798;2023-08-12T05:18:59;100487.09;;;20.35;33.89
63399;BME280;49533;-34.520;150.798;2023-08-12T05:21:26;100425.44;;;19.94;33.76
63399;BME280;49533;-34.520;150.798;2023-08-12T05:23:53;100518.47;;;20.54;33.38
63399;BME280;49533;-34.520;150.798;2023-08-12T05:26:20;100510.13;;;20.50;33.57
63399;BME280;49533;-34.520;150.798;2023-08-12T05:28:47;100514.84;;;20.50;34.08
63399;BME280;49533;-34.520;150.798;2023-08-12T05:31:14;100520.50;;;20.57;33.81
63399;BME280;49533;-34.520;150.798;2023-08-12T05:33:41;100501.81;;;20.47;33.95
63399;BME280;49533;-34.520;150.798;2023-08-12T05:36:08;100506.69;;;20.57;33.98
63399;BME280;49533;-34.520;150.798;2023-08-12T05:38:35;100516.47;;;20.51;34.26
63399;BME280;49533;-34.520;150.798;2023-08-12T05:41:02;100502.38;;;20.56;33.83
63399;BME280;49533;-34.520;150.798;2023-08-12T05:43:33;100523.72;;;20.62;34.19
63399;BME280;49533;-34.520;150.798;2023-08-12T05:46:00;100475.63;;;20.33;34.23
63399;BME280;49533;-34.520;150.798;2023-08-12T05:48:27;100487.56;;;20.41;33.94
63399;BME280;49533;-34.520;150.798;2023-08-12T05:50:54;100515.44;;;20.62;33.75
63399;BME280;49533;-34.520;150.798;2023-08-12T05:53:22;100512.53;;;20.52;34.19
63399;BME280;49533;-34.520;150.798;2023-08-12T05:55:49;100508.28;;;20.58;34.27
63399;BME280;49533;-34.520;150.798;2023-08-12T05:58:16;100510.88;;;20.47;34.09
63399;BME280;49533;-34.520;150.798;2023-08-12T06:00:43;100505.41;;;20.51;34.09
63399;BME280;49533;-34.520;150.798;2023-08-12T06:03:12;100457.63;;;20.13;34.27
63399;BME280;49533;-34.520;150.798;2023-08-12T06:05:41;100516.06;;;20.52;34.11
63399;BME280;49533;-34.520;150.798;2023-08-12T06:08:09;100530.78;;;20.60;34.05
63399;BME280;49533;-34.520;150.798;2023-08-12T06:10:36;100534.72;;;20.59;34.40
63399;BME280;49533;-34.520;150.798;2023-08-12T06:13:03;100501.28;;;20.37;34.28
63399;BME280;49533;-34.520;150.798;2023-08-12T06:15:31;100519.59;;;20.49;34.54
63399;BME280;49533;-34.520;150.798;2023-08-12T06:17:59;100536.94;;;20.50;34.68
63399;BME280;49533;-34.520;150.798;2023-08-12T06:20:26;100528.19;;;20.44;34.54
63399;BME280;49533;-34.520;150.798;2023-08-12T06:22:53;100561.47;;;20.55;34.15
63399;BME280;49533;-34.520;150.798;2023-08-12T06:25:20;100547.63;;;20.51;34.58
63399;BME280;49533;-34.520;150.798;2023-08-12T06:27:47;100559.88;;;20.54;34.55
63399;BME280;49533;-34.520;150.798;2023-08-12T06:30:15;100525.22;;;20.30;34.50
63399;BME280;49533;-34.520;150.798;2023-08-12T06:32:48;100526.38;;;20.25;34.64
63399;BME280;49533;-34.520;150.798;2023-08-12T06:35:15;100574.81;;;20.53;34.67
63399;BME280;49533;-34.520;150.798;2023-08-12T06:37:42;100560.50;;;20.44;34.75
63399;BME280;49533;-34.520;150.798;2023-08-12T06:40:09;100556.53;;;20.41;34.98
63399;BME280;49533;-34.520;150.798;2023-08-12T06:42:36;100521.91;;;20.17;34.60
63399;BME280;49533;-34.520;150.798;2023-08-12T06:45:04;100542.59;;;20.30;34.95
63399;BME280;49533;-34.520;150.798;2023-08-12T06:47:31;100582.69;;;20.51;34.83
63399;BME280;49533;-34.520;150.798;2023-08-12T06:49:58;100584.28;;;20.52;34.57
63399;BME280;49533;-34.520;150.798;2023-08-12T06:52:25;100580.72;;;20.51;34.68
63399;BME280;49533;-34.520;150.798;2023-08-12T06:54:52;100583.84;;;20.50;34.71
63399;BME280;49533;-34.520;150.798;2023-08-12T06:57:19;100584.25;;;20.48;34.93
63399;BME280;49533;-34.520;150.798;2023-08-12T06:59:46;100588.53;;;20.46;34.79
63399;BME280;49533;-34.520;150.798;2023-08-12T07:02:14;100592.09;;;20.46;34.86
63399;BME280;49533;-34.520;150.798;2023-08-12T07:04:41;100598.41;;;20.47;35.09
63399;BME280;49533;-34.520;150.798;2023-08-12T07:07:08;100597.97;;;20.45;34.90
63399;BME280;49533;-34.520;150.798;2023-08-12T07:09:35;100598.75;;;20.45;34.48
63399;BME280;49533;-34.520;150.798;2023-08-12T07:12:02;100588.03;;;20.40;34.54
63399;BME280;49533;-34.520;150.798;2023-08-12T07:14:30;100594.41;;;20.44;34.54
63399;BME280;49533;-34.520;150.798;2023-08-12T07:16:57;100605.47;;;20.44;34.55
63399;BME280;49533;-34.520;150.798;2023-08-12T07:19:24;100558.56;;;20.17;34.53
63399;BME280;49533;-34.520;150.798;2023-08-12T07:21:51;100595.34;;;20.25;34.35
63399;BME280;49533;-34.520;150.798;2023-08-12T07:24:18;100608.50;;;20.35;34.12
63399;BME280;49533;-34.520;150.798;2023-08-12T07:26:45;100605.34;;;20.37;34.35
63399;BME280;49533;-34.520;150.798;2023-08-12T07:29:13;100594.59;;;20.28;34.29
63399;BME280;49533;-34.520;150.798;2023-08-12T07:31:40;100624.31;;;20.38;34.36
63399;BME280;49533;-34.520;150.798;2023-08-12T07:34:07;100607.97;;;20.26;34.57
63399;BME280;49533;-34.520;150.798;2023-08-12T07:36:35;100621.00;;;20.29;34.28
63399;BME280;49533;-34.520;150.798;2023-08-12T07:39:03;100632.50;;;20.35;34.21
63399;BME280;49533;-34.520;150.798;2023-08-12T07:41:30;100616.97;;;20.23;34.46
63399;BME280;49533;-34.520;150.798;2023-08-12T07:43:57;100593.88;;;20.08;33.93
63399;BME280;49533;-34.520;150.798;2023-08-12T07:46:24;100639.56;;;20.32;33.95
63399;BME280;49533;-34.520;150.798;2023-08-12T07:48:51;100599.41;;;20.08;34.33
63399;BME280;49533;-34.520;150.798;2023-08-12T07:51:18;100626.47;;;20.26;33.65
63399;BME280;49533;-34.520;150.798;2023-08-12T07:53:45;100643.88;;;20.30;33.80
63399;BME280;49533;-34.520;150.798;2023-08-12T07:56:12;100663.56;;;20.28;33.80
63399;BME280;49533;-34.520;150.798;2023-08-12T07:58:39;100662.78;;;20.28;33.52
63399;BME280;49533;-34.520;150.798;2023-08-12T08:01:06;100640.41;;;20.10;33.30
63399;BME280;49533;-34.520;150.798;2023-08-12T08:03:35;100657.94;;;20.21;33.84
63399;BME280;49533;-34.520;150.798;2023-08-12T08:06:02;100667.44;;;20.24;33.54
63399;BME280;49533;-34.520;150.798;2023-08-12T08:08:29;100632.44;;;20.05;33.35
63399;BME280;49533;-34.520;150.798;2023-08-12T08:10:56;100624.78;;;19.94;33.57
63399;BME280;49533;-34.520;150.798;2023-08-12T08:13:23;100669.72;;;20.18;33.81
63399;BME280;49533;-34.520;150.798;2023-08-12T08:15:50;100672.03;;;20.16;33.73
63399;BME280;49533;-34.520;150.798;2023-08-12T08:18:17;100634.59;;;19.92;33.75
63399;BME280;49533;-34.520;150.798;2023-08-12T08:20:44;100660.44;;;20.07;33.58
63399;BME280;49533;-34.520;150.798;2023-08-12T08:23:12;100679.03;;;20.10;33.60
63399;BME280;49533;-34.520;150.798;2023-08-12T08:25:39;100644.75;;;19.88;33.46
63399;BME280;49533;-34.520;150.798;2023-08-12T08:28:06;100679.03;;;20.10;33.96
63399;BME280;49533;-34.520;150.798;2023-08-12T08:30:34;100577.03;;;19.44;33.88
63399;BME280;49533;-34.520;150.798;2023-08-12T08:33:02;100668.66;;;20.03;33.76
63399;BME280;49533;-34.520;150.798;2023-08-12T08:35:29;100611.41;;;19.73;34.06
63399;BME280;49533;-34.520;150.798;2023-08-12T08:37:56;100669.88;;;20.06;33.87
63399;BME280;49533;-34.520;150.798;2023-08-12T08:40:23;100671.13;;;20.08;34.30
63399;BME280;49533;-34.520;150.798;2023-08-12T08:42:53;100669.53;;;20.07;34.09
63399;BME280;49533;-34.520;150.798;2023-08-12T08:45:21;100672.66;;;20.06;34.08
63399;BME280;49533;-34.520;150.798;2023-08-12T08:47:52;100659.63;;;19.83;34.15
63399;BME280;49533;-34.520;150.798;2023-08-12T08:50:19;100672.59;;;20.02;34.12
63399;BME280;49533;-34.520;150.798;2023-08-12T08:52:48;100672.16;;;20.00;34.23
63399;BME280;49533;-34.520;150.798;2023-08-12T08:55:17;100660.06;;;19.85;33.85
63399;BME280;49533;-34.520;150.798;2023-08-12T08:57:44;100669.53;;;19.84;34.29
63399;BME280;49533;-34.520;150.798;2023-08-12T09:00:12;100537.28;;;19.03;34.15
63399;BME280;49533;-34.520;150.798;2023-08-12T09:02:42;100685.94;;;20.00;34.24
63399;BME280;49533;-34.520;150.798;2023-08-12T09:05:11;100650.81;;;19.74;34.09
63399;BME280;49533;-34.520;150.798;2023-08-12T09:07:39;100677.50;;;19.89;34.36
63399;BME280;49533;-34.520;150.798;2023-08-12T09:10:08;100695.38;;;19.99;34.29
63399;BME280;49533;-34.520;150.798;2023-08-12T09:12:35;100694.13;;;19.96;34.32
63399;BME280;49533;-34.520;150.798;2023-08-12T09:15:03;100699.25;;;19.94;34.34
63399;BME280;49533;-34.520;150.798;2023-08-12T09:17:31;100648.19;;;19.62;34.25
63399;BME280;49533;-34.520;150.798;2023-08-12T09:19:59;100648.94;;;19.59;34.19
63399;BME280;49533;-34.520;150.798;2023-08-12T09:22:26;100688.44;;;19.86;34.45
63399;BME280;49533;-34.520;150.798;2023-08-12T09:24:59;100673.38;;;19.80;33.99
63399;BME280;49533;-34.520;150.798;2023-08-12T09:27:26;100671.34;;;19.76;34.20
63399;BME280;49533;-34.520;150.798;2023-08-12T09:29:56;100650.38;;;19.52;34.64
63399;BME280;49533;-34.520;150.798;2023-08-12T09:32:23;100667.06;;;19.60;34.65
63399;BME280;49533;-34.520;150.798;2023-08-12T09:34:54;100701.97;;;19.71;34.74
63399;BME280;49533;-34.520;150.798;2023-08-12T09:37:23;100691.56;;;19.65;34.64
63399;BME280;49533;-34.520;150.798;2023-08-12T09:39:51;100656.88;;;19.41;34.66
63399;BME280;49533;-34.520;150.798;2023-08-12T09:42:19;100697.09;;;19.65;34.51
63399;BME280;49533;-34.520;150.798;2023-08-12T09:44:46;100634.88;;;19.25;34.70
63399;BME280;49533;-34.520;150.798;2023-08-12T09:47:13;100704.19;;;19.66;34.62
63399;BME280;49533;-34.520;150.798;2023-08-12T09:49:41;100701.00;;;19.64;34.55
63399;BME280;49533;-34.520;150.798;2023-08-12T09:52:08;100708.41;;;19.60;34.78
63399;BME280;49533;-34.520;150.798;2023-08-12T09:54:36;100715.88;;;19.59;34.54
63399;BME280;49533;-34.520;150.798;2023-08-12T09:57:04;100716.47;;;19.49;34.86
63399;BME280;49533;-34.520;150.798;2023-08-12T09:59:35;100721.69;;;19.54;34.85
63399;BME280;49533;-34.520;150.798;2023-08-12T10:02:03;100680.56;;;19.26;34.69
63399;BME280;49533;-34.520;150.798;2023-08-12T10:04:42;100732.31;;;19.55;34.75
63399;BME280;49533;-34.520;150.798;2023-08-12T10:07:11;100682.09;;;19.23;34.84
63399;BME280;49533;-34.520;150.798;2023-08-12T10:09:42;100720.75;;;19.46;34.91
63399;BME280;49533;-34.520;150.798;2023-08-12T10:12:10;100716.66;;;19.40;35.08
63399;BME280;49533;-34.520;150.798;2023-08-12T10:14:39;100732.09;;;19.45;35.30
63399;BME280;49533;-34.520;150.798;2023-08-12T10:17:06;100729.00;;;19.46;34.91
63399;BME280;49533;-34.520;150.798;2023-08-12T10:19:36;100716.25;;;19.38;35.02
63399;BME280;49533;-34.520;150.798;2023-08-12T10:22:04;100728.50;;;19.41;35.06
63399;BME280;49533;-34.520;150.798;2023-08-12T10:24:33;100732.84;;;19.42;35.18
63399;BME280;49533;-34.520;150.798;2023-08-12T10:27:01;100708.56;;;19.28;35.45
63399;BME280;49533;-34.520;150.798;2023-08-12T10:29:29;100734.34;;;19.39;35.19
63399;BME280;49533;-34.520;150.798;2023-08-12T10:31:57;100701.56;;;19.15;35.06
63399;BME280;49533;-34.520;150.798;2023-08-12T10:34:25;100727.91;;;19.31;35.38
63399;BME280;49533;-34.520;150.798;2023-08-12T10:36:57;100732.97;;;19.29;35.30
63399;BME280;49533;-34.520;150.798;2023-08-12T10:39:27;100696.63;;;19.04;35.37
63399;BME280;49533;-34.520;150.798;2023-08-12T10:41:58;100619.16;;;18.51;35.41
63399;BME280;49533;-34.520;150.798;2023-08-12T10:44:51;100696.63;;;19.04;35.50
63399;BME280;49533;-34.520;150.798;2023-08-12T10:47:18;100720.50;;;19.16;35.49
63399;BME280;49533;-34.520;150.798;2023-08-12T10:49:49;100723.69;;;19.18;35.63
63399;BME280;49533;-34.520;150.798;2023-08-12T10:52:27;100727.97;;;19.16;35.78
63399;BME280;49533;-34.520;150.798;2023-08-12T10:54:55;100712.28;;;19.00;35.94
63399;BME280;49533;-34.520;150.798;2023-08-12T10:57:37;100725.84;;;19.09;35.63
63399;BME280;49533;-34.520;150.798;2023-08-12T11:00:05;100712.84;;;18.90;35.82
63399;BME280;49533;-34.520;150.798;2023-08-12T11:02:34;100720.91;;;18.99;35.93
63399;BME280;49533;-34.520;150.798;2023-08-12T11:05:03;100745.41;;;19.04;35.94
63399;BME280;49533;-34.520;150.798;2023-08-12T11:07:45;100743.38;;;19.01;35.91
63399;BME280;49533;-34.520;150.798;2023-08-12T11:10:18;100655.03;;;18.39;35.98
63399;BME280;49533;-34.520;150.798;2023-08-12T11:12:55;100742.84;;;18.95;36.05
63399;BME280;49533;-34.520;150.798;2023-08-12T11:18:04;100741.63;;;18.93;36.03
63399;BME280;49533;-34.520;150.798;2023-08-12T11:20:33;100743.56;;;18.92;36.14
63399;BME280;49533;-34.520;150.798;2023-08-12T11:23:01;100735.66;;;18.90;36.01
63399;BME280;49533;-34.520;150.798;2023-08-12T11:25:30;100703.78;;;18.74;36.11
63399;BME280;49533;-34.520;150.798;2023-08-12T11:27:58;100715.94;;;18.88;36.02
63399;BME280;49533;-34.520;150.798;2023-08-12T11:30:26;100714.13;;;18.77;36.12
63399;BME280;49533;-34.520;150.798;2023-08-12T11:32:54;100717.91;;;18.88;36.08
63399;BME280;49533;-34.520;150.798;2023-08-12T11:35:23;100716.31;;;18.87;36.16
63399;BME280;49533;-34.520;150.798;2023-08-12T11:37:54;100715.50;;;18.86;36.16
63399;BME280;49533;-34.520;150.798;2023-08-12T11:40:23;100700.72;;;18.75;36.07
63399;BME280;49533;-34.520;150.798;2023-08-12T11:42:51;100720.03;;;18.79;36.31
63399;BME280;49533;-34.520;150.798;2023-08-12T11:45:24;100712.22;;;18.81;36.31
63399;BME280;49533;-34.520;150.798;2023-08-12T11:47:52;100711.09;;;18.82;36.18
63399;BME280;49533;-34.520;150.798;2023-08-12T11:50:21;100716.50;;;18.78;36.32
63399;BME280;49533;-34.520;150.798;2023-08-12T11:52:48;100696.88;;;18.64;36.34
63399;BME280;49533;-34.520;150.798;2023-08-12T11:55:16;100697.84;;;18.56;36.43
63399;BME280;49533;-34.520;150.798;2023-08-12T11:57:44;100707.25;;;18.71;36.44
63399;BME280;49533;-34.520;150.798;2023-08-12T12:00:12;100593.56;;;17.99;36.45
63399;BME280;49533;-34.520;150.798;2023-08-12T12:05:20;100674.59;;;18.53;36.37
63399;BME280;49533;-34.520;150.798;2023-08-12T12:07:49;100701.22;;;18.65;36.54
63399;BME280;49533;-34.520;150.798;2023-08-12T12:10:20;100702.38;;;18.64;36.49
63399;BME280;49533;-34.520;150.798;2023-08-12T12:12:48;100650.78;;;18.25;36.69
63399;BME280;49533;-34.520;150.798;2023-08-12T12:15:15;100698.75;;;18.60;36.54
63399;BME280;49533;-34.520;150.798;2023-08-12T12:17:45;100685.19;;;18.51;36.71
63399;BME280;49533;-34.520;150.798;2023-08-12T12:20:12;100674.88;;;18.48;36.76
63399;BME280;49533;-34.520;150.798;2023-08-12T12:22:42;100699.09;;;18.58;36.70
63399;BME280;49533;-34.520;150.798;2023-08-12T12:25:14;100694.75;;;18.57;36.64
63399;BME280;49533;-34.520;150.798;2023-08-12T12:27:43;100692.34;;;18.56;36.52
63399;BME280;49533;-34.520;150.798;2023-08-12T12:30:13;100693.00;;;18.49;36.68
63399;BME280;49533;-34.520;150.798;2023-08-12T12:32:40;100653.88;;;18.24;36.61
63399;BME280;49533;-34.520;150.798;2023-08-12T12:35:08;100657.16;;;18.14;36.72